sensor_id;sensor_type;location;lat;lon;timestamp;P1;durP1;ratioP1;P2;durP2;ratioP2
29788;SDS011;64899;42.660;23.268;2023-03-31T00:01:36;15.55;;;6.85;;
29788;SDS011;64899;42.660;23.268;2023-03-31T00:04:06;15.18;;;6.22;;
29788;SDS011;64899;42.660;23.268;2023-03-31T00:06:36;12.68;;;6.45;;
29788;SDS011;64899;42.660;23.268;2023-03-31T00:09:06;11.18;;;6.15;;
29788;SDS011;64899;42.660;23.268;2023-03-31T00:11:32;12.25;;;6.50;;
29788;SDS011;64899;42.660;23.268;2023-03-31T00:13:58;15.30;;;6.93;;
29788;SDS011;64899;42.660;23.268;2023-03-31T00:16:23;14.48;;;6.78;;
29788;SDS011;64899;42.660;23.268;2023-03-31T00:18:49;12.80;;;6.25;;
29788;SDS011;64899;42.660;23.268;2023-03-31T00:21:21;12.18;;;4.82;;
29788;SDS011;64899;42.660;23.268;2023-03-31T00:24:04;13.15;;;5.32;;
29788;SDS011;64899;42.660;23.268;2023-03-31T00:26:31;13.35;;;5.97;;
29788;SDS011;64899;42.660;23.268;2023-03-31T00:28:57;9.80;;;6.00;;
29788;SDS011;64899;42.660;23.268;2023-03-31T00:31:24;10.57;;;5.43;;
29788;SDS011;64899;42.660;23.268;2023-03-31T00:33:51;13.23;;;6.53;;
29788;SDS011;64899;42.660;23.268;2023-03-31T00:36:16;15.32;;;6.15;;
29788;SDS011;64899;42.660;23.268;2023-03-31T00:38:46;14.90;;;7.13;;
29788;SDS011;64899;42.660;23.268;2023-03-31T00:41:15;14.68;;;7.50;;
29788;SDS011;64899;42.660;23.268;2023-03-31T00:43:59;17.38;;;8.00;;
29788;SDS011;64899;42.660;23.268;2023-03-31T00:46:26;17.17;;;7.75;;
29788;SDS011;64899;42.660;23.268;2023-03-31T00:48:55;18.33;;;7.88;;
29788;SDS011;64899;42.660;23.268;2023-03-31T00:51:22;22.80;;;8.52;;
29788;SDS011;64899;42.660;23.268;2023-03-31T00:53:50;16.50;;;7.60;;
29788;SDS011;64899;42.660;23.268;2023-03-31T00:56:21;12.65;;;6.82;;
29788;SDS011;64899;42.660;23.268;2023-03-31T00:58:47;18.33;;;7.28;;
29788;SDS011;64899;42.660;23.268;2023-03-31T01:01:15;13.55;;;7.03;;
29788;SDS011;64899;42.660;23.268;2023-03-31T01:03:43;15.90;;;7.30;;
29788;SDS011;64899;42.660;23.268;2023-03-31T01:06:10;19.13;;;7.00;;
29788;SDS011;64899;42.660;23.268;2023-03-31T01:08:38;13.55;;;7.53;;
29788;SDS011;64899;42.660;23.268;2023-03-31T01:11:04;13.57;;;6.35;;
29788;SDS011;64899;42.660;23.268;2023-03-31T01:13:31;12.80;;;6.30;;
29788;SDS011;64899;42.660;23.268;2023-03-31T01:15:59;16.95;;;6.35;;
29788;SDS011;64899;42.660;23.268;2023-03-31T01:18:24;20.42;;;6.88;;
29788;SDS011;64899;42.660;23.268;2023-03-31T01:40:21;19.40;;;8.30;;
29788;SDS011;64899;42.660;23.268;2023-03-31T01:45:40;19.85;;;8.00;;
29788;SDS011;64899;42.660;23.268;2023-03-31T01:48:41;18.75;;;8.27;;
29788;SDS011;64899;42.660;23.268;2023-03-31T01:56:34;16.17;;;7.88;;
29788;SDS011;64899;42.660;23.268;2023-03-31T01:59:13;16.15;;;7.15;;
29788;SDS011;64899;42.660;23.268;2023-03-31T02:02:01;16.00;;;7.63;;
29788;SDS011;64899;42.660;23.268;2023-03-31T02:04:30;13.63;;;7.15;;
29788;SDS011;64899;42.660;23.268;2023-03-31T02:07:03;13.82;;;7.30;;
29788;SDS011;64899;42.660;23.268;2023-03-31T02:09:34;12.27;;;7.40;;
29788;SDS011;64899;42.660;23.268;2023-03-31T02:12:03;20.70;;;7.68;;
29788;SDS011;64899;42.660;23.268;2023-03-31T02:14:30;18.15;;;8.23;;
29788;SDS011;64899;42.660;23.268;2023-03-31T02:16:57;15.90;;;7.30;;
29788;SDS011;64899;42.660;23.268;2023-03-31T02:19:27;16.30;;;7.93;;
29788;SDS011;64899;42.660;23.268;2023-03-31T02:21:55;13.77;;;8.43;;
29788;SDS011;64899;42.660;23.268;2023-03-31T02:24:22;17.77;;;8.93;;
29788;SDS011;64899;42.660;23.268;2023-03-31T02:26:54;13.85;;;7.78;;
29788;SDS011;64899;42.660;23.268;2023-03-31T02:29:26;12.68;;;7.50;;
29788;SDS011;64899;42.660;23.268;2023-03-31T02:31:55;7.53;;;4.20;;
29788;SDS011;64899;42.660;23.268;2023-03-31T02:36:50;4.43;;;2.13;;
29788;SDS011;64899;42.660;23.268;2023-03-31T02:39:18;4.70;;;1.90;;
29788;SDS011;64899;42.660;23.268;2023-03-31T02:41:45;5.95;;;2.22;;
29788;SDS011;64899;42.660;23.268;2023-03-31T02:44:11;6.47;;;2.15;;
29788;SDS011;64899;42.660;23.268;2023-03-31T02:46:36;7.13;;;2.30;;
29788;SDS011;64899;42.660;23.268;2023-03-31T02:49:04;3.30;;;1.92;;
29788;SDS011;64899;42.660;23.268;2023-03-31T02:56:44;5.57;;;2.42;;
29788;SDS011;64899;42.660;23.268;2023-03-31T02:59:23;3.65;;;2.03;;
29788;SDS011;64899;42.660;23.268;2023-03-31T03:15:21;4.25;;;2.55;;
29788;SDS011;64899;42.660;23.268;2023-03-31T03:17:56;4.05;;;2.30;;
29788;SDS011;64899;42.660;23.268;2023-03-31T03:20:22;6.72;;;2.35;;
29788;SDS011;64899;42.660;23.268;2023-03-31T03:22:47;3.60;;;2.17;;
29788;SDS011;64899;42.660;23.268;2023-03-31T03:25:13;6.32;;;2.20;;
29788;SDS011;64899;42.660;23.268;2023-03-31T03:27:41;8.20;;;2.53;;
29788;SDS011;64899;42.660;23.268;2023-03-31T03:30:07;4.60;;;2.70;;
29788;SDS011;64899;42.660;23.268;2023-03-31T03:32:34;4.45;;;2.58;;
29788;SDS011;64899;42.660;23.268;2023-03-31T03:35:00;5.13;;;2.25;;
29788;SDS011;64899;42.660;23.268;2023-03-31T03:37:26;4.85;;;2.45;;
29788;SDS011;64899;42.660;23.268;2023-03-31T03:39:51;4.25;;;2.03;;
29788;SDS011;64899;42.660;23.268;2023-03-31T03:42:17;4.72;;;2.50;;
29788;SDS011;64899;42.660;23.268;2023-03-31T03:44:42;4.82;;;2.45;;
29788;SDS011;64899;42.660;23.268;2023-03-31T03:47:08;3.85;;;2.50;;
29788;SDS011;64899;42.660;23.268;2023-03-31T03:49:33;5.05;;;2.47;;
29788;SDS011;64899;42.660;23.268;2023-03-31T03:51:58;4.03;;;2.33;;
29788;SDS011;64899;42.660;23.268;2023-03-31T03:54:24;4.38;;;2.45;;
29788;SDS011;64899;42.660;23.268;2023-03-31T03:56:49;5.18;;;3.13;;
29788;SDS011;64899;42.660;23.268;2023-03-31T03:59:15;11.77;;;7.47;;
29788;SDS011;64899;42.660;23.268;2023-03-31T04:01:40;8.98;;;6.88;;
29788;SDS011;64899;42.660;23.268;2023-03-31T04:04:06;5.45;;;3.75;;
29788;SDS011;64899;42.660;23.268;2023-03-31T04:06:31;8.70;;;4.07;;
29788;SDS011;64899;42.660;23.268;2023-03-31T04:08:56;6.88;;;3.72;;
29788;SDS011;64899;42.660;23.268;2023-03-31T04:11:22;7.72;;;4.03;;
29788;SDS011;64899;42.660;23.268;2023-03-31T04:13:47;5.93;;;3.67;;
29788;SDS011;64899;42.660;23.268;2023-03-31T04:16:13;8.18;;;3.58;;
29788;SDS011;64899;42.660;23.268;2023-03-31T04:18:39;9.05;;;3.58;;
29788;SDS011;64899;42.660;23.268;2023-03-31T04:21:11;4.65;;;3.15;;
29788;SDS011;64899;42.660;23.268;2023-03-31T04:23:39;7.93;;;4.00;;
29788;SDS011;64899;42.660;23.268;2023-03-31T04:26:12;7.70;;;3.92;;
29788;SDS011;64899;42.660;23.268;2023-03-31T04:28:39;7.88;;;3.33;;
29788;SDS011;64899;42.660;23.268;2023-03-31T04:31:07;5.78;;;4.00;;
29788;SDS011;64899;42.660;23.268;2023-03-31T04:33:33;9.38;;;3.58;;
29788;SDS011;64899;42.660;23.268;2023-03-31T04:36:03;4.93;;;3.72;;
29788;SDS011;64899;42.660;23.268;2023-03-31T04:38:31;12.38;;;4.47;;
29788;SDS011;64899;42.660;23.268;2023-03-31T04:40:57;8.10;;;4.43;;
29788;SDS011;64899;42.660;23.268;2023-03-31T04:43:23;8.73;;;4.80;;
29788;SDS011;64899;42.660;23.268;2023-03-31T04:45:48;8.68;;;5.00;;
29788;SDS011;64899;42.660;23.268;2023-03-31T04:48:14;10.43;;;4.68;;
29788;SDS011;64899;42.660;23.268;2023-03-31T04:50:39;8.10;;;4.53;;
29788;SDS011;64899;42.660;23.268;2023-03-31T04:53:05;8.30;;;5.55;;
29788;SDS011;64899;42.660;23.268;2023-03-31T04:55:30;10.13;;;4.88;;
29788;SDS011;64899;42.660;23.268;2023-03-31T04:57:56;12.05;;;4.93;;
29788;SDS011;64899;42.660;23.268;2023-03-31T05:00:21;10.00;;;4.65;;
29788;SDS011;64899;42.660;23.268;2023-03-31T05:02:47;10.15;;;5.22;;
29788;SDS011;64899;42.660;23.268;2023-03-31T05:05:13;9.75;;;4.80;;
29788;SDS011;64899;42.660;23.268;2023-03-31T05:07:38;12.52;;;4.95;;
29788;SDS011;64899;42.660;23.268;2023-03-31T05:10:04;10.88;;;4.70;;
29788;SDS011;64899;42.660;23.268;2023-03-31T05:12:34;8.85;;;5.68;;
29788;SDS011;64899;42.660;23.268;2023-03-31T05:15:00;12.30;;;5.60;;
29788;SDS011;64899;42.660;23.268;2023-03-31T05:17:25;11.10;;;6.03;;
29788;SDS011;64899;42.660;23.268;2023-03-31T05:19:51;10.57;;;6.10;;
29788;SDS011;64899;42.660;23.268;2023-03-31T05:22:17;10.35;;;6.15;;
29788;SDS011;64899;42.660;23.268;2023-03-31T05:24:45;15.77;;;6.47;;
29788;SDS011;64899;42.660;23.268;2023-03-31T05:27:10;14.77;;;7.13;;
29788;SDS011;64899;42.660;23.268;2023-03-31T05:29:36;12.55;;;6.30;;
29788;SDS011;64899;42.660;23.268;2023-03-31T05:32:01;13.27;;;6.63;;
29788;SDS011;64899;42.660;23.268;2023-03-31T05:34:27;15.20;;;6.90;;
29788;SDS011;64899;42.660;23.268;2023-03-31T05:36:52;9.88;;;6.05;;
29788;SDS011;64899;42.660;23.268;2023-03-31T05:39:18;13.15;;;6.05;;
29788;SDS011;64899;42.660;23.268;2023-03-31T05:41:43;12.35;;;6.60;;
29788;SDS011;64899;42.660;23.268;2023-03-31T05:44:09;16.65;;;6.55;;
29788;SDS011;64899;42.660;23.268;2023-03-31T05:46:35;14.70;;;6.43;;
29788;SDS011;64899;42.660;23.268;2023-03-31T05:49:00;18.33;;;7.30;;
29788;SDS011;64899;42.660;23.268;2023-03-31T05:51:26;15.90;;;5.65;;
29788;SDS011;64899;42.660;23.268;2023-03-31T05:53:52;12.02;;;6.28;;
29788;SDS011;64899;42.660;23.268;2023-03-31T05:56:17;11.63;;;6.38;;
29788;SDS011;64899;42.660;23.268;2023-03-31T05:58:42;13.77;;;6.13;;
29788;SDS011;64899;42.660;23.268;2023-03-31T06:01:09;15.55;;;7.13;;
29788;SDS011;64899;42.660;23.268;2023-03-31T06:03:36;15.88;;;6.63;;
29788;SDS011;64899;42.660;23.268;2023-03-31T06:06:05;13.15;;;5.75;;
29788;SDS011;64899;42.660;23.268;2023-03-31T06:08:32;16.23;;;6.25;;
29788;SDS011;64899;42.660;23.268;2023-03-31T06:11:03;8.95;;;4.65;;
29788;SDS011;64899;42.660;23.268;2023-03-31T06:13:32;10.63;;;3.95;;
29788;SDS011;64899;42.660;23.268;2023-03-31T06:15:58;12.10;;;5.63;;
29788;SDS011;64899;42.660;23.268;2023-03-31T06:18:25;8.05;;;3.15;;
29788;SDS011;64899;42.660;23.268;2023-03-31T06:20:53;9.27;;;2.97;;
29788;SDS011;64899;42.660;23.268;2023-03-31T06:23:21;19.55;;;6.53;;
29788;SDS011;64899;42.660;23.268;2023-03-31T06:25:47;17.38;;;6.05;;
29788;SDS011;64899;42.660;23.268;2023-03-31T06:28:13;12.48;;;6.20;;
29788;SDS011;64899;42.660;23.268;2023-03-31T06:30:39;11.68;;;5.13;;
29788;SDS011;64899;42.660;23.268;2023-03-31T06:33:04;13.23;;;6.68;;
29788;SDS011;64899;42.660;23.268;2023-03-31T06:35:30;16.40;;;6.63;;
29788;SDS011;64899;42.660;23.268;2023-03-31T06:37:55;13.13;;;5.80;;
29788;SDS011;64899;42.660;23.268;2023-03-31T06:40:21;5.05;;;2.88;;
29788;SDS011;64899;42.660;23.268;2023-03-31T06:42:47;6.13;;;1.98;;
29788;SDS011;64899;42.660;23.268;2023-03-31T06:45:12;7.85;;;3.25;;
29788;SDS011;64899;42.660;23.268;2023-03-31T06:47:37;6.55;;;2.70;;
29788;SDS011;64899;42.660;23.268;2023-03-31T06:50:05;7.45;;;2.70;;
29788;SDS011;64899;42.660;23.268;2023-03-31T06:52:32;7.80;;;2.55;;
29788;SDS011;64899;42.660;23.268;2023-03-31T06:54:57;4.85;;;2.78;;
29788;SDS011;64899;42.660;23.268;2023-03-31T06:57:24;5.57;;;2.40;;
29788;SDS011;64899;42.660;23.268;2023-03-31T06:59:50;8.23;;;2.67;;
29788;SDS011;64899;42.660;23.268;2023-03-31T07:02:15;6.25;;;2.92;;
29788;SDS011;64899;42.660;23.268;2023-03-31T07:04:41;9.10;;;3.30;;
29788;SDS011;64899;42.660;23.268;2023-03-31T07:07:06;7.05;;;3.00;;
29788;SDS011;64899;42.660;23.268;2023-03-31T07:09:32;5.35;;;3.00;;
29788;SDS011;64899;42.660;23.268;2023-03-31T07:11:57;10.13;;;3.70;;
29788;SDS011;64899;42.660;23.268;2023-03-31T07:14:22;7.45;;;3.30;;
29788;SDS011;64899;42.660;23.268;2023-03-31T07:16:48;10.80;;;3.42;;
29788;SDS011;64899;42.660;23.268;2023-03-31T07:19:14;4.78;;;2.85;;
29788;SDS011;64899;42.660;23.268;2023-03-31T07:21:40;5.47;;;3.13;;
29788;SDS011;64899;42.660;23.268;2023-03-31T07:24:05;8.43;;;3.60;;
29788;SDS011;64899;42.660;23.268;2023-03-31T07:26:31;7.28;;;3.83;;
29788;SDS011;64899;42.660;23.268;2023-03-31T07:28:56;6.85;;;4.00;;
29788;SDS011;64899;42.660;23.268;2023-03-31T07:31:22;9.57;;;3.20;;
29788;SDS011;64899;42.660;23.268;2023-03-31T07:33:47;5.75;;;3.72;;
29788;SDS011;64899;42.660;23.268;2023-03-31T07:36:13;7.25;;;3.40;;
29788;SDS011;64899;42.660;23.268;2023-03-31T07:38:39;5.93;;;3.40;;
29788;SDS011;64899;42.660;23.268;2023-03-31T07:41:08;5.03;;;3.58;;
29788;SDS011;64899;42.660;23.268;2023-03-31T07:43:34;7.28;;;4.15;;
29788;SDS011;64899;42.660;23.268;2023-03-31T07:46:00;6.88;;;4.50;;
29788;SDS011;64899;42.660;23.268;2023-03-31T07:48:25;6.72;;;4.18;;
29788;SDS011;64899;42.660;23.268;2023-03-31T07:50:52;8.57;;;4.35;;
29788;SDS011;64899;42.660;23.268;2023-03-31T07:53:18;7.30;;;4.70;;
29788;SDS011;64899;42.660;23.268;2023-03-31T07:55:43;9.07;;;5.05;;
29788;SDS011;64899;42.660;23.268;2023-03-31T07:58:09;6.60;;;3.85;;
29788;SDS011;64899;42.660;23.268;2023-03-31T08:00:36;9.25;;;3.85;;
29788;SDS011;64899;42.660;23.268;2023-03-31T08:03:01;10.95;;;4.22;;
29788;SDS011;64899;42.660;23.268;2023-03-31T08:05:26;6.93;;;4.10;;
29788;SDS011;64899;42.660;23.268;2023-03-31T08:07:52;9.52;;;3.78;;
29788;SDS011;64899;42.660;23.268;2023-03-31T08:10:21;7.72;;;3.55;;
29788;SDS011;64899;42.660;23.268;2023-03-31T08:12:48;6.45;;;3.50;;
29788;SDS011;64899;42.660;23.268;2023-03-31T08:15:14;6.50;;;3.20;;
29788;SDS011;64899;42.660;23.268;2023-03-31T08:17:40;7.00;;;2.63;;
29788;SDS011;64899;42.660;23.268;2023-03-31T08:20:06;7.05;;;3.55;;
29788;SDS011;64899;42.660;23.268;2023-03-31T08:22:34;13.40;;;3.45;;
29788;SDS011;64899;42.660;23.268;2023-03-31T08:25:00;9.18;;;3.63;;
29788;SDS011;64899;42.660;23.268;2023-03-31T08:27:26;8.52;;;3.20;;
29788;SDS011;64899;42.660;23.268;2023-03-31T08:29:51;6.25;;;2.72;;
29788;SDS011;64899;42.660;23.268;2023-03-31T08:32:17;8.02;;;3.22;;
29788;SDS011;64899;42.660;23.268;2023-03-31T08:34:42;8.52;;;3.47;;
29788;SDS011;64899;42.660;23.268;2023-03-31T08:37:08;6.25;;;2.70;;
29788;SDS011;64899;42.660;23.268;2023-03-31T08:39:34;5.70;;;2.40;;
29788;SDS011;64899;42.660;23.268;2023-03-31T08:42:12;6.68;;;2.88;;
29788;SDS011;64899;42.660;23.268;2023-03-31T08:44:41;6.90;;;2.30;;
29788;SDS011;64899;42.660;23.268;2023-03-31T08:47:15;5.70;;;2.40;;
29788;SDS011;64899;42.660;23.268;2023-03-31T08:49:44;6.75;;;2.67;;
29788;SDS011;64899;42.660;23.268;2023-03-31T08:52:14;6.15;;;3.08;;
29788;SDS011;64899;42.660;23.268;2023-03-31T08:54:42;5.72;;;2.50;;
29788;SDS011;64899;42.660;23.268;2023-03-31T08:57:34;8.00;;;2.35;;
29788;SDS011;64899;42.660;23.268;2023-03-31T08:59:58;9.48;;;2.67;;
29788;SDS011;64899;42.660;23.268;2023-03-31T09:16:32;8.73;;;2.55;;
29788;SDS011;64899;42.660;23.268;2023-03-31T09:18:45;8.13;;;2.83;;
29788;SDS011;64899;42.660;23.268;2023-03-31T09:21:22;5.45;;;1.92;;
29788;SDS011;64899;42.660;23.268;2023-03-31T09:24:02;7.72;;;1.85;;
29788;SDS011;64899;42.660;23.268;2023-03-31T09:32:14;6.57;;;2.38;;
29788;SDS011;64899;42.660;23.268;2023-03-31T09:34:40;7.88;;;2.15;;
29788;SDS011;64899;42.660;23.268;2023-03-31T09:37:05;1.92;;;1.73;;
29788;SDS011;64899;42.660;23.268;2023-03-31T09:39:32;4.75;;;2.42;;
29788;SDS011;64899;42.660;23.268;2023-03-31T09:41:58;6.82;;;2.20;;
29788;SDS011;64899;42.660;23.268;2023-03-31T09:44:25;5.78;;;2.10;;
29788;SDS011;64899;42.660;23.268;2023-03-31T09:46:53;7.70;;;1.95;;
29788;SDS011;64899;42.660;23.268;2023-03-31T09:49:20;5.43;;;2.28;;
29788;SDS011;64899;42.660;23.268;2023-03-31T09:51:50;5.30;;;2.00;;
29788;SDS011;64899;42.660;23.268;2023-03-31T09:54:35;6.25;;;1.98;;
29788;SDS011;64899;42.660;23.268;2023-03-31T09:57:11;9.05;;;2.08;;
29788;SDS011;64899;42.660;23.268;2023-03-31T09:59:38;4.28;;;1.90;;
29788;SDS011;64899;42.660;23.268;2023-03-31T10:02:50;4.55;;;2.33;;
29788;SDS011;64899;42.660;23.268;2023-03-31T10:04:59;3.38;;;1.95;;
29788;SDS011;64899;42.660;23.268;2023-03-31T10:07:25;5.57;;;1.95;;
29788;SDS011;64899;42.660;23.268;2023-03-31T10:09:51;5.20;;;1.90;;
29788;SDS011;64899;42.660;23.268;2023-03-31T10:12:18;7.32;;;1.95;;
29788;SDS011;64899;42.660;23.268;2023-03-31T10:14:49;9.63;;;2.42;;
29788;SDS011;64899;42.660;23.268;2023-03-31T10:17:16;2.40;;;1.90;;
29788;SDS011;64899;42.660;23.268;2023-03-31T10:24:45;7.60;;;2.25;;
29788;SDS011;64899;42.660;23.268;2023-03-31T10:27:25;7.32;;;2.40;;
29788;SDS011;64899;42.660;23.268;2023-03-31T10:29:58;7.22;;;2.33;;
29788;SDS011;64899;42.660;23.268;2023-03-31T10:32:32;7.60;;;2.30;;
29788;SDS011;64899;42.660;23.268;2023-03-31T10:35:07;10.07;;;2.42;;
29788;SDS011;64899;42.660;23.268;2023-03-31T10:37:47;6.03;;;2.22;;
29788;SDS011;64899;42.660;23.268;2023-03-31T10:40:14;4.35;;;2.30;;
29788;SDS011;64899;42.660;23.268;2023-03-31T10:42:44;7.43;;;2.35;;
29788;SDS011;64899;42.660;23.268;2023-03-31T10:45:24;4.70;;;1.70;;
29788;SDS011;64899;42.660;23.268;2023-03-31T10:50:47;5.40;;;2.42;;
29788;SDS011;64899;42.660;23.268;2023-03-31T10:53:14;9.77;;;2.05;;
29788;SDS011;64899;42.660;23.268;2023-03-31T10:58:25;2.92;;;1.90;;
29788;SDS011;64899;42.660;23.268;2023-03-31T11:01:19;5.50;;;2.25;;
29788;SDS011;64899;42.660;23.268;2023-03-31T11:09:31;3.33;;;2.00;;
29788;SDS011;64899;42.660;23.268;2023-03-31T11:12:13;6.82;;;2.42;;
29788;SDS011;64899;42.660;23.268;2023-03-31T11:29:42;6.43;;;2.20;;
29788;SDS011;64899;42.660;23.268;2023-03-31T11:43:28;8.35;;;2.75;;
29788;SDS011;64899;42.660;23.268;2023-03-31T11:46:02;5.30;;;2.63;;
29788;SDS011;64899;42.660;23.268;2023-03-31T11:51:09;7.18;;;2.67;;
29788;SDS011;64899;42.660;23.268;2023-03-31T11:53:38;7.43;;;2.70;;
29788;SDS011;64899;42.660;23.268;2023-03-31T11:56:06;7.57;;;2.50;;
29788;SDS011;64899;42.660;23.268;2023-03-31T11:58:43;7.38;;;2.33;;
29788;SDS011;64899;42.660;23.268;2023-03-31T12:01:28;7.93;;;2.53;;
29788;SDS011;64899;42.660;23.268;2023-03-31T12:06:31;7.88;;;2.40;;
29788;SDS011;64899;42.660;23.268;2023-03-31T12:09:14;6.80;;;2.22;;
29788;SDS011;64899;42.660;23.268;2023-03-31T12:16:58;11.85;;;2.40;;
29788;SDS011;64899;42.660;23.268;2023-03-31T12:22:04;6.60;;;2.42;;
29788;SDS011;64899;42.660;23.268;2023-03-31T12:24:35;6.40;;;2.23;;
29788;SDS011;64899;42.660;23.268;2023-03-31T12:27:06;5.10;;;2.30;;
29788;SDS011;64899;42.660;23.268;2023-03-31T12:32:21;5.68;;;2.00;;
29788;SDS011;64899;42.660;23.268;2023-03-31T12:34:54;4.72;;;2.03;;
29788;SDS011;64899;42.660;23.268;2023-03-31T12:37:35;3.88;;;2.00;;
29788;SDS011;64899;42.660;23.268;2023-03-31T12:46:08;12.43;;;2.38;;
29788;SDS011;64899;42.660;23.268;2023-03-31T12:48:47;8.55;;;1.77;;
29788;SDS011;64899;42.660;23.268;2023-03-31T12:59:35;4.43;;;1.77;;
29788;SDS011;64899;42.660;23.268;2023-03-31T13:04:33;3.65;;;1.50;;
29788;SDS011;64899;42.660;23.268;2023-03-31T13:07:02;5.85;;;1.65;;
29788;SDS011;64899;42.660;23.268;2023-03-31T13:11:55;5.25;;;1.63;;
29788;SDS011;64899;42.660;23.268;2023-03-31T13:14:36;7.07;;;2.10;;
29788;SDS011;64899;42.660;23.268;2023-03-31T13:17:13;7.47;;;1.58;;
29788;SDS011;64899;42.660;23.268;2023-03-31T13:19:46;3.00;;;1.33;;
29788;SDS011;64899;42.660;23.268;2023-03-31T13:22:33;5.72;;;1.83;;
29788;SDS011;64899;42.660;23.268;2023-03-31T13:28:10;4.45;;;1.60;;
29788;SDS011;64899;42.660;23.268;2023-03-31T13:33:11;4.28;;;1.77;;
29788;SDS011;64899;42.660;23.268;2023-03-31T13:35:57;7.03;;;1.70;;
29788;SDS011;64899;42.660;23.268;2023-03-31T13:47:04;6.57;;;2.15;;
29788;SDS011;64899;42.660;23.268;2023-03-31T13:52:30;3.67;;;1.50;;
29788;SDS011;64899;42.660;23.268;2023-03-31T14:01:13;3.78;;;1.98;;
29788;SDS011;64899;42.660;23.268;2023-03-31T14:06:59;6.82;;;2.33;;
29788;SDS011;64899;42.660;23.268;2023-03-31T14:09:32;5.20;;;2.15;;
29788;SDS011;64899;42.660;23.268;2023-03-31T14:11:59;4.20;;;1.90;;
29788;SDS011;64899;42.660;23.268;2023-03-31T14:14:25;5.93;;;1.80;;
29788;SDS011;64899;42.660;23.268;2023-03-31T14:16:55;3.22;;;1.90;;
29788;SDS011;64899;42.660;23.268;2023-03-31T14:30:17;5.32;;;1.67;;
29788;SDS011;64899;42.660;23.268;2023-03-31T14:35:40;4.68;;;1.80;;
29788;SDS011;64899;42.660;23.268;2023-03-31T14:38:23;5.32;;;1.70;;
29788;SDS011;64899;42.660;23.268;2023-03-31T14:40:49;3.30;;;1.73;;
29788;SDS011;64899;42.660;23.268;2023-03-31T14:43:22;3.78;;;1.65;;
29788;SDS011;64899;42.660;23.268;2023-03-31T14:46:00;7.85;;;2.22;;
29788;SDS011;64899;42.660;23.268;2023-03-31T14:48:33;5.72;;;2.10;;
29788;SDS011;64899;42.660;23.268;2023-03-31T14:51:09;8.07;;;2.10;;
29788;SDS011;64899;42.660;23.268;2023-03-31T14:53:36;4.70;;;1.88;;
29788;SDS011;64899;42.660;23.268;2023-03-31T14:56:03;6.38;;;2.15;;
29788;SDS011;64899;42.660;23.268;2023-03-31T14:58:32;5.28;;;2.60;;
29788;SDS011;64899;42.660;23.268;2023-03-31T15:00:59;4.57;;;2.22;;
29788;SDS011;64899;42.660;23.268;2023-03-31T15:03:31;4.43;;;1.75;;
29788;SDS011;64899;42.660;23.268;2023-03-31T15:05:58;7.10;;;2.20;;
29788;SDS011;64899;42.660;23.268;2023-03-31T15:08:24;7.25;;;2.08;;
29788;SDS011;64899;42.660;23.268;2023-03-31T15:10:51;7.20;;;2.45;;
29788;SDS011;64899;42.660;23.268;2023-03-31T15:13:25;6.95;;;2.25;;
29788;SDS011;64899;42.660;23.268;2023-03-31T15:16:02;11.10;;;2.58;;
29788;SDS011;64899;42.660;23.268;2023-03-31T15:18:44;5.90;;;2.33;;
29788;SDS011;64899;42.660;23.268;2023-03-31T15:21:18;7.63;;;2.10;;
29788;SDS011;64899;42.660;23.268;2023-03-31T15:23:46;6.50;;;2.38;;
29788;SDS011;64899;42.660;23.268;2023-03-31T15:26:11;5.00;;;2.15;;
29788;SDS011;64899;42.660;23.268;2023-03-31T15:29:13;5.45;;;2.10;;
29788;SDS011;64899;42.660;23.268;2023-03-31T15:31:36;5.10;;;1.83;;
29788;SDS011;64899;42.660;23.268;2023-03-31T15:34:12;5.97;;;2.30;;
29788;SDS011;64899;42.660;23.268;2023-03-31T15:36:54;4.65;;;2.17;;
29788;SDS011;64899;42.660;23.268;2023-03-31T15:39:21;4.78;;;2.10;;
29788;SDS011;64899;42.660;23.268;2023-03-31T15:41:48;10.00;;;2.47;;
29788;SDS011;64899;42.660;23.268;2023-03-31T15:44:27;6.30;;;2.33;;
29788;SDS011;64899;42.660;23.268;2023-03-31T15:49:37;7.70;;;2.58;;
29788;SDS011;64899;42.660;23.268;2023-03-31T15:52:22;6.90;;;2.13;;
29788;SDS011;64899;42.660;23.268;2023-03-31T15:54:52;6.53;;;2.92;;
29788;SDS011;64899;42.660;23.268;2023-03-31T15:57:18;6.10;;;2.55;;
29788;SDS011;64899;42.660;23.268;2023-03-31T15:59:50;8.52;;;2.70;;
29788;SDS011;64899;42.660;23.268;2023-03-31T16:02:21;7.68;;;2.60;;
29788;SDS011;64899;42.660;23.268;2023-03-31T16:04:48;8.82;;;2.80;;
29788;SDS011;64899;42.660;23.268;2023-03-31T16:07:36;5.55;;;2.55;;
29788;SDS011;64899;42.660;23.268;2023-03-31T16:10:14;6.13;;;3.00;;
29788;SDS011;64899;42.660;23.268;2023-03-31T16:12:48;7.75;;;2.92;;
29788;SDS011;64899;42.660;23.268;2023-03-31T16:15:15;9.70;;;2.50;;
29788;SDS011;64899;42.660;23.268;2023-03-31T16:18:17;6.50;;;2.70;;
29788;SDS011;64899;42.660;23.268;2023-03-31T16:20:49;4.25;;;2.30;;
29788;SDS011;64899;42.660;23.268;2023-03-31T16:23:18;5.57;;;2.80;;
29788;SDS011;64899;42.660;23.268;2023-03-31T16:25:46;8.02;;;2.80;;
29788;SDS011;64899;42.660;23.268;2023-03-31T16:28:12;9.55;;;3.55;;
29788;SDS011;64899;42.660;23.268;2023-03-31T16:30:41;13.13;;;3.42;;
29788;SDS011;64899;42.660;23.268;2023-03-31T16:33:08;12.95;;;4.00;;
29788;SDS011;64899;42.660;23.268;2023-03-31T16:35:44;8.45;;;3.40;;
29788;SDS011;64899;42.660;23.268;2023-03-31T16:38:13;10.48;;;4.13;;
29788;SDS011;64899;42.660;23.268;2023-03-31T16:40:41;9.75;;;4.38;;
29788;SDS011;64899;42.660;23.268;2023-03-31T16:43:08;9.20;;;3.92;;
29788;SDS011;64899;42.660;23.268;2023-03-31T16:46:01;12.37;;;4.40;;
29788;SDS011;64899;42.660;23.268;2023-03-31T16:48:28;12.63;;;4.45;;
29788;SDS011;64899;42.660;23.268;2023-03-31T16:50:56;11.38;;;4.78;;
29788;SDS011;64899;42.660;23.268;2023-03-31T16:53:23;15.52;;;4.25;;
29788;SDS011;64899;42.660;23.268;2023-03-31T16:55:51;8.80;;;3.90;;
29788;SDS011;64899;42.660;23.268;2023-03-31T16:58:17;9.68;;;4.68;;
29788;SDS011;64899;42.660;23.268;2023-03-31T17:00:43;7.95;;;3.97;;
29788;SDS011;64899;42.660;23.268;2023-03-31T17:03:09;9.77;;;3.75;;
29788;SDS011;64899;42.660;23.268;2023-03-31T17:05:43;11.07;;;4.00;;
29788;SDS011;64899;42.660;23.268;2023-03-31T17:08:09;11.27;;;4.10;;
29788;SDS011;64899;42.660;23.268;2023-03-31T17:10:36;14.02;;;4.15;;
29788;SDS011;64899;42.660;23.268;2023-03-31T17:13:02;8.07;;;4.03;;
29788;SDS011;64899;42.660;23.268;2023-03-31T17:15:28;9.60;;;4.10;;
29788;SDS011;64899;42.660;23.268;2023-03-31T17:17:54;8.55;;;3.72;;
29788;SDS011;64899;42.660;23.268;2023-03-31T17:20:22;10.52;;;4.28;;
29788;SDS011;64899;42.660;23.268;2023-03-31T17:22:48;12.95;;;5.95;;
29788;SDS011;64899;42.660;23.268;2023-03-31T17:25:13;17.20;;;6.40;;
29788;SDS011;64899;42.660;23.268;2023-03-31T17:27:39;13.40;;;4.93;;
29788;SDS011;64899;42.660;23.268;2023-03-31T17:30:06;18.50;;;6.57;;
29788;SDS011;64899;42.660;23.268;2023-03-31T17:32:32;15.77;;;6.40;;
29788;SDS011;64899;42.660;23.268;2023-03-31T17:34:58;14.30;;;6.38;;
29788;SDS011;64899;42.660;23.268;2023-03-31T17:37:23;18.00;;;6.28;;
29788;SDS011;64899;42.660;23.268;2023-03-31T17:39:49;18.08;;;6.13;;
29788;SDS011;64899;42.660;23.268;2023-03-31T17:42:14;18.33;;;5.80;;
29788;SDS011;64899;42.660;23.268;2023-03-31T17:44:40;21.35;;;5.68;;
29788;SDS011;64899;42.660;23.268;2023-03-31T17:47:06;12.73;;;5.97;;
29788;SDS011;64899;42.660;23.268;2023-03-31T17:49:32;15.90;;;5.93;;
29788;SDS011;64899;42.660;23.268;2023-03-31T17:51:58;15.60;;;6.18;;